createdAt,value
2023-01-27T06:18:25.849Z,18.90
2023-01-27T06:28:29.460Z,19.76
2023-01-27T06:38:25.909Z,23.01
2023-01-27T06:48:25.889Z,21.99
2023-01-27T06:58:25.889Z,20.93
2023-01-27T07:08:26.024Z,22.81
2023-01-27T07:18:26.113Z,19.03
2023-01-27T07:28:25.811Z,18.93
2023-01-27T07:38:25.911Z,17.51
2023-01-27T07:48:25.910Z,19.51
2023-01-27T07:58:26.032Z,18.53
2023-01-27T08:08:26.024Z,22.27
2023-01-27T08:18:25.959Z,19.22
2023-01-27T08:28:25.954Z,22.59
2023-01-27T08:38:25.997Z,21.40
2023-01-27T08:48:25.931Z,22.68
2023-01-27T08:58:25.948Z,20.91
2023-01-27T09:08:26.054Z,23.25
2023-01-27T09:18:25.815Z,20.24
2023-01-27T09:28:26.018Z,20.96
2023-01-27T09:38:26.157Z,21.02
2023-01-27T09:48:26.250Z,20.46
2023-01-27T09:58:26.232Z,16.66
2023-01-27T10:08:26.334Z,22.68
2023-01-27T10:18:26.293Z,23.98
2023-01-27T10:28:26.425Z,20.67
2023-01-27T10:38:26.192Z,16.98
2023-01-27T10:48:26.209Z,21.29
2023-01-27T10:58:26.107Z,21.46
2023-01-27T11:08:26.267Z,19.83
2023-01-27T11:18:26.190Z,23.59
2023-01-27T11:28:26.343Z,24.41
2023-01-27T11:38:27.332Z,24.38
2023-01-27T11:48:26.282Z,22.34
2023-01-27T11:58:26.274Z,19.50
2023-01-27T12:08:26.268Z,19.43
2023-01-27T12:18:26.325Z,22.13
2023-01-27T12:28:26.320Z,24.06
2023-01-27T12:38:26.299Z,26.59
2023-01-27T12:48:26.335Z,22.81
2023-01-27T12:58:26.282Z,26.29
2023-01-27T13:08:26.279Z,22.55
2023-01-27T13:18:26.336Z,21.58
2023-01-27T13:28:26.263Z,19.74
2023-01-27T13:38:26.435Z,18.27
2023-01-27T13:48:26.311Z,19.86
2023-01-27T13:58:26.245Z,22.65
2023-01-27T14:08:26.453Z,18.78
2023-01-27T14:18:26.326Z,16.88
2023-01-27T14:28:26.323Z,14.76
2023-01-27T14:38:26.327Z,19.50
2023-01-27T14:48:26.433Z,15.68
2023-01-27T14:58:26.364Z,17.26
2023-01-27T15:08:26.399Z,15.83
2023-01-27T15:18:26.481Z,15.47
2023-01-27T15:28:26.430Z,21.78
2023-01-27T15:38:26.495Z,23.92
2023-01-27T15:48:26.397Z,25.76
2023-01-27T15:58:26.419Z,19.60
2023-01-27T16:08:26.462Z,15.26
2023-01-27T16:18:26.618Z,9.26
2023-01-27T16:28:26.504Z,9.44
2023-01-27T16:38:26.473Z,8.24
2023-01-27T16:48:26.490Z,9.07
2023-01-27T16:58:39.759Z,11.78
2023-01-27T17:08:26.647Z,13.66
2023-01-27T17:18:26.542Z,13.14
2023-01-27T17:28:26.471Z,11.47
2023-01-27T17:38:26.511Z,12.43
2023-01-27T17:48:26.448Z,15.04
2023-01-27T17:58:26.587Z,13.65
2023-01-27T18:08:26.626Z,16.02
2023-01-27T18:18:26.610Z,18.04
2023-01-27T18:28:26.734Z,11.81
2023-01-27T18:38:26.631Z,13.14
2023-01-27T18:48:26.630Z,14.42
2023-01-27T18:58:26.671Z,11.96
2023-01-27T19:08:26.578Z,11.20
2023-01-27T19:18:26.630Z,9.41
